sensor_id;sensor_type;location;lat;lon;timestamp;P1;durP1;ratioP1;P2;durP2;ratioP2
6089;SDS011;3073;42.660;23.316;2023-04-03T00:00:21;6.37;;;2.80;;
6089;SDS011;3073;42.660;23.316;2023-04-03T00:02:48;4.30;;;2.73;;
6089;SDS011;3073;42.660;23.316;2023-04-03T00:05:14;4.77;;;2.63;;
6089;SDS011;3073;42.660;23.316;2023-04-03T00:07:41;4.13;;;2.77;;
6089;SDS011;3073;42.660;23.316;2023-04-03T00:10:08;5.30;;;2.90;;
6089;SDS011;3073;42.660;23.316;2023-04-03T00:12:44;6.57;;;3.20;;
6089;SDS011;3073;42.660;23.316;2023-04-03T00:15:11;6.33;;;2.60;;
6089;SDS011;3073;42.660;23.316;2023-04-03T00:17:38;3.70;;;2.47;;
6089;SDS011;3073;42.660;23.316;2023-04-03T00:20:05;5.30;;;2.90;;
6089;SDS011;3073;42.660;23.316;2023-04-03T00:22:33;5.60;;;2.30;;
6089;SDS011;3073;42.660;23.316;2023-04-03T00:25:00;6.10;;;2.90;;
6089;SDS011;3073;42.660;23.316;2023-04-03T00:27:27;3.53;;;2.60;;
6089;SDS011;3073;42.660;23.316;2023-04-03T00:29:55;5.80;;;2.83;;
6089;SDS011;3073;42.660;23.316;2023-04-03T00:32:22;6.10;;;2.87;;
6089;SDS011;3073;42.660;23.316;2023-04-03T00:34:49;7.03;;;3.43;;
6089;SDS011;3073;42.660;23.316;2023-04-03T00:37:15;10.73;;;4.10;;
6089;SDS011;3073;42.660;23.316;2023-04-03T00:39:42;9.57;;;3.20;;
6089;SDS011;3073;42.660;23.316;2023-04-03T00:42:09;5.50;;;3.80;;
6089;SDS011;3073;42.660;23.316;2023-04-03T00:47:56;7.73;;;4.17;;
6089;SDS011;3073;42.660;23.316;2023-04-03T00:50:26;6.63;;;3.73;;
6089;SDS011;3073;42.660;23.316;2023-04-03T00:52:55;8.10;;;4.97;;
6089;SDS011;3073;42.660;23.316;2023-04-03T00:55:22;9.10;;;5.10;;
6089;SDS011;3073;42.660;23.316;2023-04-03T00:57:50;11.87;;;5.60;;
6089;SDS011;3073;42.660;23.316;2023-04-03T01:00:18;8.50;;;5.20;;
6089;SDS011;3073;42.660;23.316;2023-04-03T01:02:48;8.87;;;4.93;;
6089;SDS011;3073;42.660;23.316;2023-04-03T01:05:17;10.10;;;5.50;;
6089;SDS011;3073;42.660;23.316;2023-04-03T01:07:46;9.57;;;5.10;;
6089;SDS011;3073;42.660;23.316;2023-04-03T01:10:14;10.47;;;5.83;;
6089;SDS011;3073;42.660;23.316;2023-04-03T01:12:45;12.50;;;5.27;;
6089;SDS011;3073;42.660;23.316;2023-04-03T01:15:14;12.43;;;4.90;;
6089;SDS011;3073;42.660;23.316;2023-04-03T01:17:44;11.20;;;6.07;;
6089;SDS011;3073;42.660;23.316;2023-04-03T01:26:15;6.87;;;3.40;;
6089;SDS011;3073;42.660;23.316;2023-04-03T01:28:42;4.27;;;2.67;;
6089;SDS011;3073;42.660;23.316;2023-04-03T01:31:13;6.30;;;2.37;;
6089;SDS011;3073;42.660;23.316;2023-04-03T01:33:48;7.70;;;3.00;;
6089;SDS011;3073;42.660;23.316;2023-04-03T01:36:16;5.50;;;3.23;;
6089;SDS011;3073;42.660;23.316;2023-04-03T01:38:45;5.90;;;2.90;;
6089;SDS011;3073;42.660;23.316;2023-04-03T01:41:12;4.90;;;3.10;;
6089;SDS011;3073;42.660;23.316;2023-04-03T01:43:38;3.97;;;2.40;;
6089;SDS011;3073;42.660;23.316;2023-04-03T01:46:05;4.97;;;3.17;;
6089;SDS011;3073;42.660;23.316;2023-04-03T01:48:32;4.33;;;2.73;;
6089;SDS011;3073;42.660;23.316;2023-04-03T01:51:09;3.60;;;2.60;;
6089;SDS011;3073;42.660;23.316;2023-04-03T01:53:36;4.17;;;2.83;;
6089;SDS011;3073;42.660;23.316;2023-04-03T01:56:03;3.77;;;2.13;;
6089;SDS011;3073;42.660;23.316;2023-04-03T01:58:30;3.50;;;2.83;;
6089;SDS011;3073;42.660;23.316;2023-04-03T02:00:57;6.03;;;3.13;;
6089;SDS011;3073;42.660;23.316;2023-04-03T02:03:24;5.67;;;2.90;;
6089;SDS011;3073;42.660;23.316;2023-04-03T02:05:51;5.43;;;3.50;;
6089;SDS011;3073;42.660;23.316;2023-04-03T02:08:19;5.73;;;2.93;;
6089;SDS011;3073;42.660;23.316;2023-04-03T02:10:47;3.93;;;2.50;;
6089;SDS011;3073;42.660;23.316;2023-04-03T02:13:14;3.50;;;2.40;;
6089;SDS011;3073;42.660;23.316;2023-04-03T02:15:41;6.90;;;2.87;;
6089;SDS011;3073;42.660;23.316;2023-04-03T02:18:08;3.80;;;2.37;;
6089;SDS011;3073;42.660;23.316;2023-04-03T02:20:35;4.40;;;2.70;;
6089;SDS011;3073;42.660;23.316;2023-04-03T02:23:02;8.10;;;3.20;;
6089;SDS011;3073;42.660;23.316;2023-04-03T02:25:32;3.60;;;3.03;;
6089;SDS011;3073;42.660;23.316;2023-04-03T02:27:59;5.60;;;3.47;;
6089;SDS011;3073;42.660;23.316;2023-04-03T02:30:26;5.87;;;3.30;;
6089;SDS011;3073;42.660;23.316;2023-04-03T02:32:53;5.97;;;3.80;;
6089;SDS011;3073;42.660;23.316;2023-04-03T02:35:21;4.17;;;2.97;;
6089;SDS011;3073;42.660;23.316;2023-04-03T02:37:48;10.03;;;4.20;;
6089;SDS011;3073;42.660;23.316;2023-04-03T02:40:15;9.27;;;4.97;;
6089;SDS011;3073;42.660;23.316;2023-04-03T02:42:43;10.33;;;4.33;;
6089;SDS011;3073;42.660;23.316;2023-04-03T02:45:10;13.40;;;4.97;;
6089;SDS011;3073;42.660;23.316;2023-04-03T02:47:37;9.17;;;5.67;;
6089;SDS011;3073;42.660;23.316;2023-04-03T02:50:04;17.80;;;7.30;;
6089;SDS011;3073;42.660;23.316;2023-04-03T02:52:31;16.17;;;6.13;;
6089;SDS011;3073;42.660;23.316;2023-04-03T02:54:58;11.47;;;5.70;;
6089;SDS011;3073;42.660;23.316;2023-04-03T02:57:25;12.87;;;5.77;;
6089;SDS011;3073;42.660;23.316;2023-04-03T02:59:55;10.67;;;5.27;;
6089;SDS011;3073;42.660;23.316;2023-04-03T03:02:22;10.00;;;4.90;;
6089;SDS011;3073;42.660;23.316;2023-04-03T03:04:49;9.53;;;5.10;;
6089;SDS011;3073;42.660;23.316;2023-04-03T03:07:16;12.17;;;5.77;;
6089;SDS011;3073;42.660;23.316;2023-04-03T03:09:43;11.73;;;5.33;;
6089;SDS011;3073;42.660;23.316;2023-04-03T03:12:10;8.77;;;4.80;;
6089;SDS011;3073;42.660;23.316;2023-04-03T03:14:37;8.70;;;4.63;;
6089;SDS011;3073;42.660;23.316;2023-04-03T03:17:05;7.97;;;4.43;;
6089;SDS011;3073;42.660;23.316;2023-04-03T03:19:32;8.60;;;5.00;;
6089;SDS011;3073;42.660;23.316;2023-04-03T03:21:59;9.97;;;4.73;;
6089;SDS011;3073;42.660;23.316;2023-04-03T03:24:26;13.73;;;4.90;;
6089;SDS011;3073;42.660;23.316;2023-04-03T03:26:53;7.97;;;4.77;;
6089;SDS011;3073;42.660;23.316;2023-04-03T03:29:20;9.10;;;5.30;;
6089;SDS011;3073;42.660;23.316;2023-04-03T03:31:47;15.90;;;6.90;;
6089;SDS011;3073;42.660;23.316;2023-04-03T03:34:15;14.97;;;6.73;;
6089;SDS011;3073;42.660;23.316;2023-04-03T03:36:42;9.90;;;5.50;;
6089;SDS011;3073;42.660;23.316;2023-04-03T03:39:09;16.23;;;6.10;;
6089;SDS011;3073;42.660;23.316;2023-04-03T03:41:37;11.47;;;5.57;;
6089;SDS011;3073;42.660;23.316;2023-04-03T03:44:04;10.77;;;5.00;;
6089;SDS011;3073;42.660;23.316;2023-04-03T03:46:30;10.87;;;5.67;;
6089;SDS011;3073;42.660;23.316;2023-04-03T03:48:57;12.70;;;6.00;;
6089;SDS011;3073;42.660;23.316;2023-04-03T03:51:26;10.37;;;5.00;;
6089;SDS011;3073;42.660;23.316;2023-04-03T03:53:53;8.40;;;5.37;;
6089;SDS011;3073;42.660;23.316;2023-04-03T03:56:20;9.87;;;5.57;;
6089;SDS011;3073;42.660;23.316;2023-04-03T03:58:47;10.90;;;5.67;;
6089;SDS011;3073;42.660;23.316;2023-04-03T04:01:14;8.97;;;4.70;;
6089;SDS011;3073;42.660;23.316;2023-04-03T04:03:42;9.60;;;4.50;;
6089;SDS011;3073;42.660;23.316;2023-04-03T04:06:09;9.00;;;4.93;;
6089;SDS011;3073;42.660;23.316;2023-04-03T04:08:37;10.77;;;4.77;;
6089;SDS011;3073;42.660;23.316;2023-04-03T04:11:04;10.40;;;6.13;;
6089;SDS011;3073;42.660;23.316;2023-04-03T04:13:31;10.57;;;5.27;;
6089;SDS011;3073;42.660;23.316;2023-04-03T04:15:58;7.03;;;4.60;;
6089;SDS011;3073;42.660;23.316;2023-04-03T04:18:25;15.87;;;6.10;;
6089;SDS011;3073;42.660;23.316;2023-04-03T04:20:52;12.10;;;5.57;;
6089;SDS011;3073;42.660;23.316;2023-04-03T04:23:19;9.50;;;4.73;;
6089;SDS011;3073;42.660;23.316;2023-04-03T04:25:47;10.77;;;5.07;;
6089;SDS011;3073;42.660;23.316;2023-04-03T04:28:16;7.40;;;4.77;;
6089;SDS011;3073;42.660;23.316;2023-04-03T04:30:43;11.00;;;4.60;;
6089;SDS011;3073;42.660;23.316;2023-04-03T04:33:10;14.40;;;4.97;;
6089;SDS011;3073;42.660;23.316;2023-04-03T04:35:39;9.07;;;5.40;;
6089;SDS011;3073;42.660;23.316;2023-04-03T04:38:09;14.97;;;4.83;;
6089;SDS011;3073;42.660;23.316;2023-04-03T04:40:36;6.40;;;5.00;;
6089;SDS011;3073;42.660;23.316;2023-04-03T04:43:04;12.53;;;6.20;;
6089;SDS011;3073;42.660;23.316;2023-04-03T04:45:31;16.37;;;6.53;;
6089;SDS011;3073;42.660;23.316;2023-04-03T04:47:58;9.40;;;6.10;;
6089;SDS011;3073;42.660;23.316;2023-04-03T04:50:26;13.33;;;5.60;;
6089;SDS011;3073;42.660;23.316;2023-04-03T04:52:52;9.17;;;5.60;;
6089;SDS011;3073;42.660;23.316;2023-04-03T04:55:19;11.43;;;6.30;;
6089;SDS011;3073;42.660;23.316;2023-04-03T04:57:46;10.27;;;6.43;;
6089;SDS011;3073;42.660;23.316;2023-04-03T05:00:15;13.97;;;6.57;;
6089;SDS011;3073;42.660;23.316;2023-04-03T05:02:43;11.93;;;6.27;;
6089;SDS011;3073;42.660;23.316;2023-04-03T05:05:10;16.93;;;10.20;;
6089;SDS011;3073;42.660;23.316;2023-04-03T05:07:37;13.20;;;6.77;;
6089;SDS011;3073;42.660;23.316;2023-04-03T05:10:04;18.43;;;8.20;;
6089;SDS011;3073;42.660;23.316;2023-04-03T05:12:32;18.17;;;7.43;;
6089;SDS011;3073;42.660;23.316;2023-04-03T05:14:59;13.13;;;7.60;;
6089;SDS011;3073;42.660;23.316;2023-04-03T05:17:27;20.97;;;7.93;;
6089;SDS011;3073;42.660;23.316;2023-04-03T05:19:54;18.20;;;7.30;;
6089;SDS011;3073;42.660;23.316;2023-04-03T05:22:21;11.40;;;6.50;;
6089;SDS011;3073;42.660;23.316;2023-04-03T05:24:48;18.90;;;7.43;;
6089;SDS011;3073;42.660;23.316;2023-04-03T05:27:16;15.03;;;7.37;;
6089;SDS011;3073;42.660;23.316;2023-04-03T05:29:44;14.87;;;7.70;;
6089;SDS011;3073;42.660;23.316;2023-04-03T05:32:12;28.93;;;7.63;;
6089;SDS011;3073;42.660;23.316;2023-04-03T05:34:40;26.57;;;9.33;;
6089;SDS011;3073;42.660;23.316;2023-04-03T05:37:07;25.40;;;9.80;;
6089;SDS011;3073;42.660;23.316;2023-04-03T05:39:34;25.13;;;9.37;;
6089;SDS011;3073;42.660;23.316;2023-04-03T05:42:03;22.13;;;7.43;;
6089;SDS011;3073;42.660;23.316;2023-04-03T05:44:30;23.33;;;7.47;;
6089;SDS011;3073;42.660;23.316;2023-04-03T05:46:57;19.37;;;8.10;;
6089;SDS011;3073;42.660;23.316;2023-04-03T05:49:24;15.03;;;7.27;;
6089;SDS011;3073;42.660;23.316;2023-04-03T05:51:52;12.73;;;7.83;;
6089;SDS011;3073;42.660;23.316;2023-04-03T05:54:20;23.00;;;7.20;;
6089;SDS011;3073;42.660;23.316;2023-04-03T05:56:50;17.47;;;7.80;;
6089;SDS011;3073;42.660;23.316;2023-04-03T05:59:18;20.73;;;8.17;;
6089;SDS011;3073;42.660;23.316;2023-04-03T06:01:46;18.90;;;7.00;;
6089;SDS011;3073;42.660;23.316;2023-04-03T06:04:13;18.07;;;8.70;;
6089;SDS011;3073;42.660;23.316;2023-04-03T06:06:47;17.50;;;8.40;;
6089;SDS011;3073;42.660;23.316;2023-04-03T06:09:19;20.80;;;10.13;;
6089;SDS011;3073;42.660;23.316;2023-04-03T06:11:46;27.90;;;9.80;;
6089;SDS011;3073;42.660;23.316;2023-04-03T06:14:19;25.03;;;10.67;;
6089;SDS011;3073;42.660;23.316;2023-04-03T06:17:03;27.60;;;11.63;;
6089;SDS011;3073;42.660;23.316;2023-04-03T06:19:31;37.83;;;14.63;;
6089;SDS011;3073;42.660;23.316;2023-04-03T06:21:58;22.80;;;11.87;;
6089;SDS011;3073;42.660;23.316;2023-04-03T06:24:26;24.20;;;9.83;;
6089;SDS011;3073;42.660;23.316;2023-04-03T06:26:53;19.50;;;10.40;;
6089;SDS011;3073;42.660;23.316;2023-04-03T06:29:20;25.67;;;10.30;;
6089;SDS011;3073;42.660;23.316;2023-04-03T06:31:47;21.90;;;9.20;;
6089;SDS011;3073;42.660;23.316;2023-04-03T06:34:14;21.17;;;9.20;;
6089;SDS011;3073;42.660;23.316;2023-04-03T06:36:42;18.23;;;9.47;;
6089;SDS011;3073;42.660;23.316;2023-04-03T06:39:10;14.70;;;9.27;;
6089;SDS011;3073;42.660;23.316;2023-04-03T06:41:41;19.53;;;10.47;;
6089;SDS011;3073;42.660;23.316;2023-04-03T06:44:08;16.10;;;9.53;;
6089;SDS011;3073;42.660;23.316;2023-04-03T06:46:38;24.43;;;9.40;;
6089;SDS011;3073;42.660;23.316;2023-04-03T06:49:05;22.37;;;9.50;;
6089;SDS011;3073;42.660;23.316;2023-04-03T06:51:33;20.73;;;7.97;;
6089;SDS011;3073;42.660;23.316;2023-04-03T06:54:01;17.53;;;7.53;;
6089;SDS011;3073;42.660;23.316;2023-04-03T06:56:29;14.10;;;7.10;;
6089;SDS011;3073;42.660;23.316;2023-04-03T06:58:57;12.13;;;5.97;;
6089;SDS011;3073;42.660;23.316;2023-04-03T07:01:25;11.53;;;6.73;;
6089;SDS011;3073;42.660;23.316;2023-04-03T07:03:53;28.83;;;9.73;;
6089;SDS011;3073;42.660;23.316;2023-04-03T07:06:20;13.37;;;8.03;;
6089;SDS011;3073;42.660;23.316;2023-04-03T07:08:47;19.03;;;8.40;;
6089;SDS011;3073;42.660;23.316;2023-04-03T07:11:16;13.27;;;7.80;;
6089;SDS011;3073;42.660;23.316;2023-04-03T07:13:43;15.17;;;7.73;;
6089;SDS011;3073;42.660;23.316;2023-04-03T07:16:11;16.00;;;7.07;;
6089;SDS011;3073;42.660;23.316;2023-04-03T07:18:38;13.10;;;6.80;;
6089;SDS011;3073;42.660;23.316;2023-04-03T07:21:06;14.60;;;6.80;;
6089;SDS011;3073;42.660;23.316;2023-04-03T07:23:33;15.23;;;6.60;;
6089;SDS011;3073;42.660;23.316;2023-04-03T07:26:00;13.90;;;7.10;;
6089;SDS011;3073;42.660;23.316;2023-04-03T07:28:27;14.47;;;7.53;;
6089;SDS011;3073;42.660;23.316;2023-04-03T07:30:59;11.40;;;8.10;;
6089;SDS011;3073;42.660;23.316;2023-04-03T07:33:30;14.33;;;7.47;;
6089;SDS011;3073;42.660;23.316;2023-04-03T07:35:57;11.57;;;6.60;;
6089;SDS011;3073;42.660;23.316;2023-04-03T07:38:25;11.73;;;7.10;;
6089;SDS011;3073;42.660;23.316;2023-04-03T07:40:53;10.03;;;6.93;;
6089;SDS011;3073;42.660;23.316;2023-04-03T07:43:20;15.70;;;7.73;;
6089;SDS011;3073;42.660;23.316;2023-04-03T07:45:51;18.43;;;6.30;;
6089;SDS011;3073;42.660;23.316;2023-04-03T07:48:19;23.60;;;7.03;;
6089;SDS011;3073;42.660;23.316;2023-04-03T07:50:48;17.50;;;6.50;;
6089;SDS011;3073;42.660;23.316;2023-04-03T07:53:18;15.77;;;7.70;;
6089;SDS011;3073;42.660;23.316;2023-04-03T07:55:46;15.80;;;6.70;;
6089;SDS011;3073;42.660;23.316;2023-04-03T07:58:14;10.40;;;6.87;;
6089;SDS011;3073;42.660;23.316;2023-04-03T08:00:43;13.70;;;7.80;;
6089;SDS011;3073;42.660;23.316;2023-04-03T08:03:10;21.30;;;10.30;;
6089;SDS011;3073;42.660;23.316;2023-04-03T08:08:32;16.70;;;9.30;;
6089;SDS011;3073;42.660;23.316;2023-04-03T08:11:00;13.60;;;8.30;;
6089;SDS011;3073;42.660;23.316;2023-04-03T08:13:33;21.13;;;8.73;;
6089;SDS011;3073;42.660;23.316;2023-04-03T08:16:07;13.63;;;7.00;;
6089;SDS011;3073;42.660;23.316;2023-04-03T08:18:38;27.03;;;8.83;;
6089;SDS011;3073;42.660;23.316;2023-04-03T08:21:08;19.57;;;8.93;;
6089;SDS011;3073;42.660;23.316;2023-04-03T08:23:38;19.87;;;8.57;;
6089;SDS011;3073;42.660;23.316;2023-04-03T08:26:08;18.20;;;6.80;;
6089;SDS011;3073;42.660;23.316;2023-04-03T08:28:35;14.60;;;5.53;;
6089;SDS011;3073;42.660;23.316;2023-04-03T08:31:03;26.60;;;8.60;;
6089;SDS011;3073;42.660;23.316;2023-04-03T08:33:34;20.70;;;10.27;;
6089;SDS011;3073;42.660;23.316;2023-04-03T08:36:05;28.43;;;14.20;;
6089;SDS011;3073;42.660;23.316;2023-04-03T08:38:47;26.40;;;16.10;;
6089;SDS011;3073;42.660;23.316;2023-04-03T08:41:15;35.53;;;15.70;;
6089;SDS011;3073;42.660;23.316;2023-04-03T08:46:46;37.47;;;18.63;;
6089;SDS011;3073;42.660;23.316;2023-04-03T08:49:22;41.03;;;16.93;;
6089;SDS011;3073;42.660;23.316;2023-04-03T08:51:57;30.30;;;17.00;;
6089;SDS011;3073;42.660;23.316;2023-04-03T08:54:30;32.63;;;17.23;;
6089;SDS011;3073;42.660;23.316;2023-04-03T08:57:00;40.07;;;15.67;;
6089;SDS011;3073;42.660;23.316;2023-04-03T08:59:32;34.00;;;15.73;;
6089;SDS011;3073;42.660;23.316;2023-04-03T09:02:02;35.00;;;15.30;;
6089;SDS011;3073;42.660;23.316;2023-04-03T09:04:39;38.00;;;15.33;;
6089;SDS011;3073;42.660;23.316;2023-04-03T09:07:09;25.37;;;14.37;;
6089;SDS011;3073;42.660;23.316;2023-04-03T09:09:41;36.47;;;17.50;;
6089;SDS011;3073;42.660;23.316;2023-04-03T09:12:13;37.67;;;16.03;;
6089;SDS011;3073;42.660;23.316;2023-04-03T09:14:46;36.73;;;15.07;;
6089;SDS011;3073;42.660;23.316;2023-04-03T09:17:24;28.47;;;12.80;;
6089;SDS011;3073;42.660;23.316;2023-04-03T09:20:03;28.73;;;14.77;;
6089;SDS011;3073;42.660;23.316;2023-04-03T09:22:39;38.83;;;16.63;;
6089;SDS011;3073;42.660;23.316;2023-04-03T09:25:10;30.83;;;14.67;;
6089;SDS011;3073;42.660;23.316;2023-04-03T09:27:40;29.33;;;12.97;;
6089;SDS011;3073;42.660;23.316;2023-04-03T09:30:11;26.40;;;11.97;;
6089;SDS011;3073;42.660;23.316;2023-04-03T09:32:40;32.33;;;12.40;;
6089;SDS011;3073;42.660;23.316;2023-04-03T09:35:15;28.53;;;13.77;;
6089;SDS011;3073;42.660;23.316;2023-04-03T09:37:50;25.93;;;13.70;;
6089;SDS011;3073;42.660;23.316;2023-04-03T09:40:32;21.57;;;7.83;;
6089;SDS011;3073;42.660;23.316;2023-04-03T09:43:01;13.27;;;5.77;;
6089;SDS011;3073;42.660;23.316;2023-04-03T09:45:45;14.63;;;5.10;;
6089;SDS011;3073;42.660;23.316;2023-04-03T09:48:15;15.90;;;4.63;;
6089;SDS011;3073;42.660;23.316;2023-04-03T09:50:52;9.80;;;4.40;;
6089;SDS011;3073;42.660;23.316;2023-04-03T09:53:35;10.53;;;4.53;;
6089;SDS011;3073;42.660;23.316;2023-04-03T09:56:04;21.30;;;6.17;;
6089;SDS011;3073;42.660;23.316;2023-04-03T09:58:46;13.10;;;6.00;;
6089;SDS011;3073;42.660;23.316;2023-04-03T10:01:20;7.80;;;4.20;;
6089;SDS011;3073;42.660;23.316;2023-04-03T10:04:03;9.70;;;4.83;;
6089;SDS011;3073;42.660;23.316;2023-04-03T10:06:32;12.60;;;5.43;;
6089;SDS011;3073;42.660;23.316;2023-04-03T10:09:03;10.00;;;5.40;;
6089;SDS011;3073;42.660;23.316;2023-04-03T10:11:31;7.50;;;4.60;;
6089;SDS011;3073;42.660;23.316;2023-04-03T10:13:59;13.47;;;5.87;;
6089;SDS011;3073;42.660;23.316;2023-04-03T10:16:32;10.10;;;4.50;;
6089;SDS011;3073;42.660;23.316;2023-04-03T10:19:14;9.30;;;3.73;;
6089;SDS011;3073;42.660;23.316;2023-04-03T10:22:09;9.77;;;4.40;;
6089;SDS011;3073;42.660;23.316;2023-04-03T10:24:47;18.93;;;4.40;;
6089;SDS011;3073;42.660;23.316;2023-04-03T10:27:22;10.33;;;4.90;;
6089;SDS011;3073;42.660;23.316;2023-04-03T10:30:00;8.53;;;4.97;;
6089;SDS011;3073;42.660;23.316;2023-04-03T10:32:41;9.30;;;4.57;;
6089;SDS011;3073;42.660;23.316;2023-04-03T10:35:20;6.70;;;3.93;;
6089;SDS011;3073;42.660;23.316;2023-04-03T10:38:01;15.03;;;4.90;;
6089;SDS011;3073;42.660;23.316;2023-04-03T10:40:38;9.93;;;5.27;;
6089;SDS011;3073;42.660;23.316;2023-04-03T10:43:14;15.30;;;3.30;;
6089;SDS011;3073;42.660;23.316;2023-04-03T10:45:49;7.97;;;3.03;;
6089;SDS011;3073;42.660;23.316;2023-04-03T10:48:25;8.37;;;2.87;;
6089;SDS011;3073;42.660;23.316;2023-04-03T10:51:08;6.70;;;3.23;;
6089;SDS011;3073;42.660;23.316;2023-04-03T10:53:52;4.67;;;3.00;;
6089;SDS011;3073;42.660;23.316;2023-04-03T10:56:27;6.73;;;3.73;;
6089;SDS011;3073;42.660;23.316;2023-04-03T10:58:58;6.60;;;4.03;;
6089;SDS011;3073;42.660;23.316;2023-04-03T11:01:35;7.97;;;4.00;;
6089;SDS011;3073;42.660;23.316;2023-04-03T11:04:06;10.37;;;3.83;;
6089;SDS011;3073;42.660;23.316;2023-04-03T11:06:35;3.27;;;2.33;;
6089;SDS011;3073;42.660;23.316;2023-04-03T11:09:07;7.47;;;3.10;;
6089;SDS011;3073;42.660;23.316;2023-04-03T11:11:47;4.70;;;2.93;;
6089;SDS011;3073;42.660;23.316;2023-04-03T11:14:20;9.20;;;3.20;;
6089;SDS011;3073;42.660;23.316;2023-04-03T11:16:54;16.93;;;3.77;;
6089;SDS011;3073;42.660;23.316;2023-04-03T11:19:31;11.90;;;3.80;;
6089;SDS011;3073;42.660;23.316;2023-04-03T11:22:05;5.73;;;3.40;;
6089;SDS011;3073;42.660;23.316;2023-04-03T11:24:38;5.33;;;3.70;;
6089;SDS011;3073;42.660;23.316;2023-04-03T11:27:09;11.93;;;4.33;;
6089;SDS011;3073;42.660;23.316;2023-04-03T11:29:42;7.13;;;3.60;;
6089;SDS011;3073;42.660;23.316;2023-04-03T11:35:13;5.47;;;3.50;;
6089;SDS011;3073;42.660;23.316;2023-04-03T11:37:42;11.93;;;5.73;;
6089;SDS011;3073;42.660;23.316;2023-04-03T11:40:19;6.20;;;4.70;;
6089;SDS011;3073;42.660;23.316;2023-04-03T11:42:53;9.57;;;5.40;;
6089;SDS011;3073;42.660;23.316;2023-04-03T11:45:51;9.23;;;5.40;;
6089;SDS011;3073;42.660;23.316;2023-04-03T12:12:41;4.80;;;4.23;;
6089;SDS011;3073;42.660;23.316;2023-04-03T12:15:25;11.67;;;5.80;;
6089;SDS011;3073;42.660;23.316;2023-04-03T12:24:51;13.60;;;5.40;;
6089;SDS011;3073;42.660;23.316;2023-04-03T12:27:57;8.20;;;6.00;;
6089;SDS011;3073;42.660;23.316;2023-04-03T12:30:25;9.07;;;5.87;;
6089;SDS011;3073;42.660;23.316;2023-04-03T12:33:04;7.23;;;5.43;;
6089;SDS011;3073;42.660;23.316;2023-04-03T12:43:02;9.27;;;7.00;;
6089;SDS011;3073;42.660;23.316;2023-04-03T12:45:48;8.53;;;7.50;;
6089;SDS011;3073;42.660;23.316;2023-04-03T12:48:24;13.93;;;7.40;;
6089;SDS011;3073;42.660;23.316;2023-04-03T12:50:57;8.87;;;7.27;;
6089;SDS011;3073;42.660;23.316;2023-04-03T12:53:26;13.40;;;7.80;;
6089;SDS011;3073;42.660;23.316;2023-04-03T12:56:21;9.00;;;7.00;;
6089;SDS011;3073;42.660;23.316;2023-04-03T12:58:52;12.07;;;8.53;;
6089;SDS011;3073;42.660;23.316;2023-04-03T13:01:21;13.20;;;7.57;;
6089;SDS011;3073;42.660;23.316;2023-04-03T13:03:50;11.00;;;6.13;;
6089;SDS011;3073;42.660;23.316;2023-04-03T13:06:21;9.43;;;6.27;;
6089;SDS011;3073;42.660;23.316;2023-04-03T13:09:20;9.23;;;6.27;;
6089;SDS011;3073;42.660;23.316;2023-04-03T13:11:51;10.50;;;6.87;;
6089;SDS011;3073;42.660;23.316;2023-04-03T13:14:26;11.50;;;6.17;;
6089;SDS011;3073;42.660;23.316;2023-04-03T13:16:54;11.77;;;7.23;;
6089;SDS011;3073;42.660;23.316;2023-04-03T13:19:22;9.90;;;7.40;;
6089;SDS011;3073;42.660;23.316;2023-04-03T13:21:51;13.70;;;6.87;;
6089;SDS011;3073;42.660;23.316;2023-04-03T13:24:26;12.00;;;7.37;;
6089;SDS011;3073;42.660;23.316;2023-04-03T13:26:55;11.30;;;6.70;;
6089;SDS011;3073;42.660;23.316;2023-04-03T13:29:27;8.60;;;7.10;;
6089;SDS011;3073;42.660;23.316;2023-04-03T13:31:56;11.50;;;6.97;;
6089;SDS011;3073;42.660;23.316;2023-04-03T13:34:26;12.10;;;7.80;;
6089;SDS011;3073;42.660;23.316;2023-04-03T13:36:57;10.53;;;7.67;;
6089;SDS011;3073;42.660;23.316;2023-04-03T13:39:27;11.93;;;8.03;;
6089;SDS011;3073;42.660;23.316;2023-04-03T13:41:55;15.80;;;8.53;;
6089;SDS011;3073;42.660;23.316;2023-04-03T13:44:29;10.97;;;7.97;;
6089;SDS011;3073;42.660;23.316;2023-04-03T13:47:00;12.57;;;8.10;;
6089;SDS011;3073;42.660;23.316;2023-04-03T13:49:40;9.97;;;8.00;;
6089;SDS011;3073;42.660;23.316;2023-04-03T13:52:20;8.03;;;7.10;;
6089;SDS011;3073;42.660;23.316;2023-04-03T13:54:51;9.50;;;7.43;;
6089;SDS011;3073;42.660;23.316;2023-04-03T13:57:20;10.13;;;7.90;;
6089;SDS011;3073;42.660;23.316;2023-04-03T14:03:11;23.00;;;9.40;;
6089;SDS011;3073;42.660;23.316;2023-04-03T14:05:45;10.27;;;8.10;;
6089;SDS011;3073;42.660;23.316;2023-04-03T14:08:12;13.10;;;8.97;;
6089;SDS011;3073;42.660;23.316;2023-04-03T14:10:39;10.60;;;8.03;;
6089;SDS011;3073;42.660;23.316;2023-04-03T14:13:08;11.93;;;8.37;;
6089;SDS011;3073;42.660;23.316;2023-04-03T14:15:39;11.50;;;9.20;;
6089;SDS011;3073;42.660;23.316;2023-04-03T14:18:09;13.23;;;9.03;;
6089;SDS011;3073;42.660;23.316;2023-04-03T14:20:37;12.40;;;9.40;;
6089;SDS011;3073;42.660;23.316;2023-04-03T14:23:05;18.73;;;10.00;;
6089;SDS011;3073;42.660;23.316;2023-04-03T14:25:32;10.60;;;8.67;;
6089;SDS011;3073;42.660;23.316;2023-04-03T14:28:00;14.33;;;8.20;;
6089;SDS011;3073;42.660;23.316;2023-04-03T14:30:28;10.10;;;7.17;;
6089;SDS011;3073;42.660;23.316;2023-04-03T14:32:58;19.33;;;7.80;;
6089;SDS011;3073;42.660;23.316;2023-04-03T14:35:26;9.00;;;6.93;;
6089;SDS011;3073;42.660;23.316;2023-04-03T14:37:54;8.17;;;6.30;;
6089;SDS011;3073;42.660;23.316;2023-04-03T14:40:22;6.40;;;5.80;;
6089;SDS011;3073;42.660;23.316;2023-04-03T14:42:56;7.03;;;6.03;;
6089;SDS011;3073;42.660;23.316;2023-04-03T14:45:23;8.10;;;5.77;;
6089;SDS011;3073;42.660;23.316;2023-04-03T14:47:53;6.00;;;4.90;;
6089;SDS011;3073;42.660;23.316;2023-04-03T14:50:24;12.77;;;6.00;;
6089;SDS011;3073;42.660;23.316;2023-04-03T14:52:54;8.87;;;6.80;;
6089;SDS011;3073;42.660;23.316;2023-04-03T14:55:23;9.90;;;6.57;;
6089;SDS011;3073;42.660;23.316;2023-04-03T14:57:51;9.40;;;6.03;;
6089;SDS011;3073;42.660;23.316;2023-04-03T15:00:20;12.17;;;8.10;;
6089;SDS011;3073;42.660;23.316;2023-04-03T15:02:50;13.50;;;7.33;;
6089;SDS011;3073;42.660;23.316;2023-04-03T15:05:17;9.40;;;7.63;;
6089;SDS011;3073;42.660;23.316;2023-04-03T15:07:46;9.70;;;6.70;;
6089;SDS011;3073;42.660;23.316;2023-04-03T15:10:17;8.47;;;6.00;;
6089;SDS011;3073;42.660;23.316;2023-04-03T15:12:47;6.67;;;5.97;;
6089;SDS011;3073;42.660;23.316;2023-04-03T15:15:15;8.73;;;6.00;;
6089;SDS011;3073;42.660;23.316;2023-04-03T15:17:43;7.07;;;5.50;;
6089;SDS011;3073;42.660;23.316;2023-04-03T15:20:14;8.47;;;5.83;;
6089;SDS011;3073;42.660;23.316;2023-04-03T15:22:43;8.47;;;7.60;;
6089;SDS011;3073;42.660;23.316;2023-04-03T15:25:11;8.37;;;5.97;;
6089;SDS011;3073;42.660;23.316;2023-04-03T15:27:39;9.00;;;7.30;;
6089;SDS011;3073;42.660;23.316;2023-04-03T15:30:07;8.13;;;7.13;;
6089;SDS011;3073;42.660;23.316;2023-04-03T15:32:39;9.03;;;6.97;;
6089;SDS011;3073;42.660;23.316;2023-04-03T15:35:09;9.50;;;6.73;;
6089;SDS011;3073;42.660;23.316;2023-04-03T15:37:51;11.80;;;8.20;;
6089;SDS011;3073;42.660;23.316;2023-04-03T15:40:20;12.87;;;7.60;;
6089;SDS011;3073;42.660;23.316;2023-04-03T15:42:46;10.63;;;7.57;;
6089;SDS011;3073;42.660;23.316;2023-04-03T15:45:13;11.27;;;8.07;;
6089;SDS011;3073;42.660;23.316;2023-04-03T15:47:41;10.23;;;7.97;;
6089;SDS011;3073;42.660;23.316;2023-04-03T15:50:08;11.40;;;8.10;;
6089;SDS011;3073;42.660;23.316;2023-04-03T15:52:36;9.67;;;8.40;;
6089;SDS011;3073;42.660;23.316;2023-04-03T15:55:03;17.87;;;9.73;;
6089;SDS011;3073;42.660;23.316;2023-04-03T15:57:32;10.67;;;8.60;;
6089;SDS011;3073;42.660;23.316;2023-04-03T15:59:59;13.30;;;9.43;;
6089;SDS011;3073;42.660;23.316;2023-04-03T16:02:26;13.97;;;8.97;;
6089;SDS011;3073;42.660;23.316;2023-04-03T16:04:53;12.53;;;9.80;;
6089;SDS011;3073;42.660;23.316;2023-04-03T16:07:21;12.50;;;10.00;;